createdAt,value
2022-09-12T00:01:17.233Z,97.50
2022-09-12T00:03:43.951Z,97.50
2022-09-12T00:06:12.361Z,97.50
2022-09-12T00:08:39.292Z,97.60
2022-09-12T00:11:08.570Z,97.60
2022-09-12T00:13:40.821Z,97.60
2022-09-12T00:16:14.678Z,97.60
2022-09-12T00:18:41.761Z,97.90
2022-09-12T00:21:08.505Z,97.60
2022-09-12T00:23:35.514Z,97.50
2022-09-12T00:26:05.775Z,97.60
2022-09-12T00:28:34.699Z,97.50
2022-09-12T00:31:07.943Z,97.50
2022-09-12T00:33:35.479Z,97.50
2022-09-12T00:36:06.211Z,97.50
2022-09-12T00:38:33.745Z,97.50
2022-09-12T00:41:00.374Z,97.50
2022-09-12T00:43:30.226Z,97.50
2022-09-12T00:45:58.134Z,97.50
2022-09-12T00:48:34.118Z,97.40
2022-09-12T00:51:01.207Z,97.50
2022-09-12T00:53:28.849Z,97.40
2022-09-12T00:55:55.961Z,97.80
2022-09-12T00:58:26.390Z,97.40
2022-09-12T01:00:53.079Z,97.40
2022-09-12T01:03:21.172Z,97.40
2022-09-12T01:06:02.869Z,97.40
2022-09-12T01:08:29.828Z,97.40
2022-09-12T01:10:57.150Z,97.40
2022-09-12T01:13:23.985Z,97.40
2022-09-12T01:15:50.697Z,97.30
2022-09-12T01:18:21.491Z,97.30
2022-09-12T01:21:25.691Z,97.30
2022-09-12T01:24:17.383Z,97.20
2022-09-12T01:26:58.938Z,97.20
2022-09-12T01:29:25.537Z,97.10
2022-09-12T01:32:01.877Z,97.10
2022-09-12T01:34:46.136Z,97.10
2022-09-12T01:37:43.002Z,97.00
2022-09-12T01:40:16.208Z,97.00
2022-09-12T01:43:09.578Z,96.90
2022-09-12T01:45:46.715Z,96.90
2022-09-12T01:48:20.382Z,96.90
2022-09-12T01:50:51.734Z,96.80
2022-09-12T01:53:33.582Z,96.70
2022-09-12T01:56:08.678Z,96.60
2022-09-12T01:58:58.969Z,96.60
2022-09-12T02:01:33.916Z,96.50
2022-09-12T02:04:04.127Z,96.40
2022-09-12T02:06:35.372Z,96.50
2022-09-12T02:09:07.547Z,96.50
2022-09-12T02:11:35.732Z,96.60
2022-09-12T02:14:12.800Z,96.60
2022-09-12T02:16:46.523Z,96.70
2022-09-12T02:19:16.630Z,96.70
2022-09-12T02:21:50.353Z,96.80
2022-09-12T02:24:17.765Z,96.90
2022-09-12T02:26:48.118Z,96.90
2022-09-12T02:29:15.188Z,97.00
2022-09-12T02:32:05.091Z,97.00
2022-09-12T02:35:07.332Z,97.10
2022-09-12T02:37:44.316Z,97.20
2022-09-12T02:40:11.193Z,97.20
2022-09-12T02:42:38.019Z,97.30
2022-09-12T02:45:05.378Z,97.30
2022-09-12T02:47:39.860Z,97.40
2022-09-12T02:50:08.066Z,97.40
2022-09-12T02:52:35.995Z,97.40
2022-09-12T02:55:04.943Z,97.50
2022-09-12T02:57:31.761Z,97.50
2022-09-12T03:00:00.861Z,97.60
2022-09-12T03:03:08.638Z,97.70
2022-09-12T03:05:38.943Z,97.80
2022-09-12T03:08:21.577Z,97.80
2022-09-12T03:10:59.210Z,97.90
2022-09-12T03:13:29.024Z,97.90
2022-09-12T03:16:33.576Z,98.00
2022-09-12T03:19:27.460Z,98.00
2022-09-12T03:21:59.739Z,98.10
2022-09-12T03:24:52.020Z,98.20
2022-09-12T03:27:19.477Z,98.30
2022-09-12T03:29:47.886Z,98.30
2022-09-12T03:32:15.070Z,98.30
2022-09-12T03:34:41.735Z,98.40
2022-09-12T03:37:08.404Z,98.50
2022-09-12T03:39:35.030Z,98.60
2022-09-12T03:42:01.714Z,98.50
2022-09-12T03:44:28.486Z,98.60
2022-09-12T03:46:55.216Z,98.70
2022-09-12T03:49:21.871Z,98.70
2022-09-12T03:51:48.497Z,98.80
2022-09-12T03:54:15.175Z,98.80
2022-09-12T03:56:41.824Z,98.90
2022-09-12T03:59:08.549Z,98.90
2022-09-12T04:01:35.586Z,99.00
2022-09-12T04:04:02.501Z,99.10
2022-09-12T04:06:29.695Z,99.20
2022-09-12T04:08:56.446Z,99.20
2022-09-12T04:11:23.804Z,99.20
2022-09-12T04:13:50.873Z,99.20
2022-09-12T04:16:18.553Z,99.20
2022-09-12T04:18:45.613Z,99.20
2022-09-12T04:21:15.283Z,99.00
2022-09-12T04:23:42.366Z,99.20
2022-09-12T04:26:09.630Z,99.10
2022-09-12T04:28:37.494Z,99.00
2022-09-12T04:31:13.959Z,98.90
2022-09-12T04:33:40.636Z,99.00
2022-09-12T04:36:10.033Z,99.00
2022-09-12T04:38:37.360Z,98.90
2022-09-12T04:41:12.065Z,98.90
2022-09-12T04:43:38.611Z,99.00
2022-09-12T04:46:07.338Z,99.00
2022-09-12T04:48:34.638Z,98.90
2022-09-12T04:51:13.737Z,98.90
2022-09-12T04:53:41.193Z,98.80
2022-09-12T04:56:10.551Z,98.80
2022-09-12T04:58:37.795Z,98.70
2022-09-12T05:01:09.093Z,98.70
2022-09-12T05:03:38.827Z,98.70
2022-09-12T05:06:13.045Z,98.70
2022-09-12T05:08:39.705Z,98.70
2022-09-12T05:11:11.101Z,98.70
2022-09-12T05:13:38.795Z,98.80
2022-09-12T05:16:06.691Z,98.70
2022-09-12T05:18:34.663Z,98.80
2022-09-12T05:21:02.528Z,98.70
2022-09-12T05:23:29.311Z,98.70
2022-09-12T05:25:57.808Z,98.70
2022-09-12T05:28:26.116Z,98.70
2022-09-12T05:31:13.420Z,98.70
2022-09-12T05:33:41.754Z,98.60
2022-09-12T05:36:11.918Z,98.60
2022-09-12T05:38:38.906Z,98.60
2022-09-12T05:41:14.673Z,98.60
2022-09-12T05:43:45.135Z,98.60
2022-09-12T05:46:18.869Z,98.50
2022-09-12T05:48:47.280Z,98.60
2022-09-12T05:51:20.298Z,98.60
2022-09-12T05:53:51.497Z,98.50
2022-09-12T05:56:20.144Z,98.50
2022-09-12T05:58:48.788Z,98.40
2022-09-12T06:01:17.101Z,98.40
2022-09-12T06:03:45.975Z,98.20
2022-09-12T06:06:13.996Z,98.10
2022-09-12T06:08:45.476Z,98.00
2022-09-12T06:11:17.918Z,97.90
2022-09-12T06:13:44.992Z,97.80
2022-09-12T06:16:13.728Z,97.70
2022-09-12T06:18:41.585Z,97.70
2022-09-12T06:21:12.724Z,97.60
2022-09-12T06:23:40.146Z,97.50
2022-09-12T06:26:08.928Z,97.70
2022-09-12T06:28:37.266Z,97.20
2022-09-12T06:31:10.940Z,97.20
2022-09-12T06:33:41.087Z,97.00
2022-09-12T06:36:22.674Z,96.90
2022-09-12T06:38:57.214Z,96.60
2022-09-12T06:41:25.137Z,96.40
2022-09-12T06:43:52.162Z,96.60
2022-09-12T06:46:19.069Z,96.20
2022-09-12T06:48:45.875Z,96.00
2022-09-12T06:51:15.633Z,95.90
2022-09-12T06:53:44.268Z,95.80
2022-09-12T06:56:16.157Z,95.60
2022-09-12T06:58:43.720Z,95.50
2022-09-12T07:01:15.203Z,95.40
2022-09-12T07:03:42.809Z,95.10
2022-09-12T07:06:11.454Z,94.70
2022-09-12T07:08:39.222Z,94.60
2022-09-12T07:11:23.004Z,94.70
2022-09-12T07:13:51.805Z,94.60
2022-09-12T07:16:19.907Z,94.50
2022-09-12T07:18:54.691Z,94.40
2022-09-12T07:21:21.301Z,94.40
2022-09-12T07:23:48.488Z,94.00
2022-09-12T07:26:16.179Z,93.60
2022-09-12T07:28:42.960Z,93.00
2022-09-12T07:31:12.019Z,93.10
2022-09-12T07:33:39.668Z,92.70
2022-09-12T07:36:11.583Z,92.90
2022-09-12T07:38:42.036Z,92.30
2022-09-12T07:41:12.735Z,92.10
2022-09-12T07:43:39.746Z,91.30
2022-09-12T07:46:06.599Z,90.70
2022-09-12T07:48:33.842Z,90.40
2022-09-12T07:51:02.570Z,90.10
2022-09-12T07:53:43.265Z,90.20
2022-09-12T07:56:11.449Z,89.00
2022-09-12T07:58:40.410Z,89.80
2022-09-12T08:01:15.403Z,90.20
2022-09-12T08:03:43.876Z,89.10
2022-09-12T08:06:11.303Z,89.40
2022-09-12T08:08:38.732Z,88.50
2022-09-12T08:11:11.910Z,89.30
2022-09-12T08:13:39.827Z,88.20
2022-09-12T08:16:21.937Z,85.80
2022-09-12T08:18:49.407Z,86.60
2022-09-12T08:21:21.770Z,87.10
2022-09-12T08:23:53.543Z,84.90
2022-09-12T08:26:20.563Z,84.10
2022-09-12T08:28:47.725Z,84.30
2022-09-12T08:31:17.238Z,83.50
2022-09-12T08:33:44.153Z,81.70
2022-09-12T08:36:13.205Z,82.30
2022-09-12T08:38:43.714Z,83.30
2022-09-12T08:41:30.323Z,82.70
2022-09-12T08:44:22.181Z,82.00
2022-09-12T08:47:11.418Z,81.10
2022-09-12T08:49:39.858Z,80.70
2022-09-12T08:52:12.929Z,80.70
2022-09-12T08:54:39.812Z,80.60
2022-09-12T08:57:08.560Z,78.70
2022-09-12T08:59:40.326Z,79.50
2022-09-12T09:02:33.486Z,78.70
2022-09-12T09:05:21.906Z,77.10
2022-09-12T09:08:09.063Z,77.20
2022-09-12T09:11:00.160Z,73.80
2022-09-12T09:14:15.919Z,75.20
2022-09-12T09:16:44.737Z,75.00
2022-09-12T09:19:22.120Z,73.60
2022-09-12T09:21:57.090Z,72.70
2022-09-12T09:24:34.230Z,70.70
2022-09-12T09:27:01.911Z,71.60
2022-09-12T09:29:34.002Z,73.30
2022-09-12T09:32:01.875Z,73.00
2022-09-12T09:34:31.477Z,73.70
2022-09-12T09:37:21.743Z,72.00
2022-09-12T09:39:51.538Z,70.00
2022-09-12T09:42:45.683Z,70.90
2022-09-12T09:45:16.297Z,71.90
2022-09-12T09:47:49.163Z,71.70
2022-09-12T09:50:19.413Z,72.40
2022-09-12T09:52:47.601Z,72.20
2022-09-12T09:55:22.680Z,69.60
2022-09-12T09:57:49.937Z,71.50
2022-09-12T10:00:32.516Z,71.00
2022-09-12T10:03:04.990Z,69.40
2022-09-12T10:05:34.894Z,71.40
2022-09-12T10:08:03.419Z,72.20
2022-09-12T10:10:31.078Z,69.00
2022-09-12T10:13:10.177Z,70.30
2022-09-12T10:15:38.490Z,68.00
2022-09-12T10:18:05.438Z,69.10
2022-09-12T10:20:32.234Z,68.70
2022-09-12T10:23:25.270Z,70.20
2022-09-12T10:25:58.241Z,67.40
2022-09-12T10:28:39.341Z,70.60
2022-09-12T10:31:07.633Z,70.40
2022-09-12T10:33:47.482Z,70.00
2022-09-12T10:36:15.074Z,70.10
2022-09-12T10:38:53.510Z,69.90
2022-09-12T10:41:21.812Z,67.00
2022-09-12T10:43:49.322Z,69.30
2022-09-12T10:46:16.306Z,70.20
2022-09-12T10:48:44.177Z,70.00
2022-09-12T10:51:26.167Z,66.70
2022-09-12T10:53:58.162Z,67.90
2022-09-12T10:56:36.250Z,64.20
2022-09-12T10:59:22.868Z,65.80
2022-09-12T11:01:56.101Z,67.60
2022-09-12T11:04:30.182Z,67.20
2022-09-12T11:07:19.862Z,68.50
2022-09-12T11:09:49.352Z,67.30
2022-09-12T11:12:46.971Z,68.10
2022-09-12T11:15:31.595Z,64.70
2022-09-12T11:18:10.631Z,64.80
2022-09-12T11:21:02.967Z,64.90
2022-09-12T11:23:43.224Z,65.60
2022-09-12T11:26:19.229Z,63.30
2022-09-12T11:28:47.376Z,63.90
2022-09-12T11:31:30.071Z,64.80
2022-09-12T11:33:59.496Z,62.70
2022-09-12T11:36:44.311Z,61.90
2022-09-12T11:39:18.090Z,61.70
2022-09-12T11:41:49.497Z,57.60
2022-09-12T11:44:20.762Z,62.50
2022-09-12T11:46:51.550Z,62.10
2022-09-12T11:49:37.997Z,60.50
2022-09-12T11:52:19.922Z,61.70
2022-09-12T11:54:52.773Z,60.00
2022-09-12T11:57:36.561Z,60.70
2022-09-12T12:00:22.171Z,60.00
2022-09-12T12:03:14.239Z,61.20
2022-09-12T12:05:53.396Z,58.40
2022-09-12T12:08:24.631Z,57.30
2022-09-12T12:10:56.300Z,59.00
2022-09-12T12:13:29.274Z,59.40
2022-09-12T12:16:08.891Z,58.00
2022-09-12T12:18:39.337Z,56.90
2022-09-12T12:21:31.895Z,56.80
2022-09-12T12:24:07.532Z,55.60
2022-09-12T12:26:42.946Z,56.10
2022-09-12T12:29:09.747Z,56.60
2022-09-12T12:32:12.908Z,55.40
2022-09-12T12:34:40.366Z,56.20
2022-09-12T12:37:19.331Z,57.20
2022-09-12T12:39:47.809Z,58.00
2022-09-12T12:42:35.711Z,57.00
2022-09-12T12:45:04.321Z,56.10
2022-09-12T12:47:43.603Z,57.10
2022-09-12T12:50:10.199Z,56.80
2022-09-12T12:52:57.092Z,55.90
2022-09-12T12:55:26.240Z,56.70
2022-09-12T12:57:54.158Z,56.90
2022-09-12T13:00:20.918Z,56.90
2022-09-12T13:03:17.950Z,57.30
2022-09-12T13:05:50.250Z,55.70
2022-09-12T13:08:16.912Z,56.70
2022-09-12T13:10:54.750Z,56.10
2022-09-12T13:13:32.209Z,56.70
2022-09-12T13:15:59.094Z,55.10
2022-09-12T13:18:28.801Z,56.50
2022-09-12T13:21:03.138Z,57.10
2022-09-12T13:23:30.604Z,55.70
2022-09-12T13:25:59.083Z,54.00
2022-09-12T13:28:26.433Z,55.50
2022-09-12T13:31:30.913Z,56.50
2022-09-12T13:34:02.762Z,56.80
2022-09-12T13:37:23.357Z,57.00
2022-09-12T13:40:24.121Z,53.70
2022-09-12T13:43:05.367Z,55.40
2022-09-12T13:45:36.314Z,56.50
2022-09-12T13:48:04.441Z,56.60
2022-09-12T13:50:37.053Z,54.40
2022-09-12T13:53:15.326Z,55.40
2022-09-12T13:55:46.175Z,56.80
2022-09-12T13:58:23.680Z,56.30
2022-09-12T14:01:12.646Z,54.60
2022-09-12T14:04:12.096Z,55.30
2022-09-12T14:06:52.349Z,56.50
2022-09-12T14:09:25.462Z,55.50
2022-09-12T14:11:53.658Z,57.20
2022-09-12T14:14:40.453Z,56.90
2022-09-12T14:17:24.028Z,56.70
2022-09-12T14:19:52.670Z,56.90
2022-09-12T14:22:19.435Z,56.30
2022-09-12T14:24:50.053Z,54.00
2022-09-12T14:27:29.004Z,55.10
2022-09-12T14:30:07.428Z,55.70
2022-09-12T14:32:34.995Z,55.60
2022-09-12T14:35:10.837Z,55.70
2022-09-12T14:37:38.523Z,56.10
2022-09-12T14:40:17.626Z,56.10
2022-09-12T14:42:44.951Z,55.60
2022-09-12T14:45:17.981Z,55.40
2022-09-12T14:47:49.401Z,56.40
2022-09-12T14:50:18.469Z,56.20
2022-09-12T14:52:45.159Z,56.10
2022-09-12T14:55:30.001Z,56.20
2022-09-12T14:58:20.582Z,56.10
2022-09-12T15:01:22.822Z,55.90
2022-09-12T15:03:54.827Z,55.90
2022-09-12T15:06:30.130Z,56.40
2022-09-12T15:09:07.303Z,56.50
2022-09-12T15:11:34.051Z,56.10
2022-09-12T15:14:07.549Z,55.60
2022-09-12T15:16:34.460Z,55.70
2022-09-12T15:19:01.274Z,56.40
2022-09-12T15:21:28.134Z,56.10
2022-09-12T15:23:54.852Z,56.60
2022-09-12T15:26:24.055Z,56.30
2022-09-12T15:28:51.233Z,56.30
2022-09-12T15:31:25.403Z,56.00
2022-09-12T15:33:52.558Z,56.10
2022-09-12T15:36:21.098Z,56.60
2022-09-12T15:38:48.491Z,56.30
2022-09-12T15:41:17.928Z,56.30
2022-09-12T15:43:45.486Z,56.10
2022-09-12T15:46:13.356Z,56.10
2022-09-12T15:48:40.441Z,55.80
2022-09-12T15:51:15.928Z,55.80
2022-09-12T15:53:43.529Z,56.10
2022-09-12T15:56:10.292Z,56.10
2022-09-12T15:58:49.778Z,55.80
2022-09-12T16:01:24.322Z,55.80
2022-09-12T16:03:51.067Z,56.20
2022-09-12T16:06:17.813Z,55.10
2022-09-12T16:08:44.501Z,55.80
2022-09-12T16:11:17.778Z,56.00
2022-09-12T16:13:44.945Z,56.30
2022-09-12T16:16:11.653Z,56.40
2022-09-12T16:18:41.872Z,56.70
2022-09-12T16:21:14.045Z,56.70
2022-09-12T16:23:45.853Z,56.70
2022-09-12T16:26:13.074Z,56.60
2022-09-12T16:28:40.173Z,56.80
2022-09-12T16:31:08.427Z,56.80
2022-09-12T16:33:35.367Z,56.80
2022-09-12T16:36:06.875Z,56.80
2022-09-12T16:38:34.611Z,57.00
2022-09-12T16:41:06.052Z,57.00
2022-09-12T16:43:34.348Z,57.00
2022-09-12T16:46:09.799Z,57.20
2022-09-12T16:48:37.854Z,57.30
2022-09-12T16:51:06.912Z,57.60
2022-09-12T16:53:35.166Z,57.80
2022-09-12T16:56:02.064Z,58.10
2022-09-12T16:58:32.699Z,58.30
2022-09-12T17:01:07.159Z,58.40
2022-09-12T17:03:35.763Z,58.60
2022-09-12T17:06:05.531Z,58.90
2022-09-12T17:08:37.255Z,59.00
2022-09-12T17:11:06.950Z,59.20
2022-09-12T17:13:53.319Z,58.90
2022-09-12T17:16:21.092Z,58.60
2022-09-12T17:18:47.864Z,58.30
2022-09-12T17:21:15.104Z,58.40
2022-09-12T17:23:42.252Z,58.50
2022-09-12T17:26:10.182Z,58.50
2022-09-12T17:28:37.611Z,58.60
2022-09-12T17:31:07.141Z,58.90
2022-09-12T17:33:34.279Z,59.00
2022-09-12T17:36:18.294Z,59.20
2022-09-12T17:38:45.956Z,59.70
2022-09-12T17:41:18.890Z,60.00
2022-09-12T17:43:57.051Z,60.40
2022-09-12T17:46:45.293Z,60.90
2022-09-12T17:49:14.936Z,61.10
2022-09-12T17:51:43.665Z,61.40
2022-09-12T17:54:12.942Z,61.70
2022-09-12T17:56:40.267Z,62.10
2022-09-12T17:59:08.361Z,62.30
2022-09-12T18:01:53.809Z,62.60
2022-09-12T18:04:20.658Z,63.00
2022-09-12T18:06:50.108Z,63.30
2022-09-12T18:09:19.458Z,63.60
2022-09-12T18:11:46.894Z,63.80
2022-09-12T18:14:14.504Z,64.10
2022-09-12T18:16:42.421Z,65.10
2022-09-12T18:19:09.499Z,64.60
2022-09-12T18:21:38.426Z,64.70
2022-09-12T18:24:06.336Z,65.00
2022-09-12T18:26:33.224Z,65.10
2022-09-12T18:28:59.949Z,65.50
2022-09-12T18:31:28.930Z,65.60
2022-09-12T18:33:56.862Z,65.90
2022-09-12T18:36:23.616Z,66.10
2022-09-12T18:38:50.336Z,66.30
2022-09-12T18:41:19.306Z,66.50
2022-09-12T18:43:46.861Z,66.70
2022-09-12T18:46:16.417Z,66.90
2022-09-12T18:48:44.630Z,67.00
2022-09-12T18:51:16.674Z,67.10
2022-09-12T18:53:47.762Z,67.20
2022-09-12T18:56:14.540Z,67.30
2022-09-12T18:58:42.790Z,67.60
2022-09-12T19:01:13.613Z,67.70
2022-09-12T19:03:40.606Z,68.50
2022-09-12T19:06:12.814Z,68.00
2022-09-12T19:08:40.802Z,68.10
2022-09-12T19:11:08.461Z,68.20
2022-09-12T19:13:40.352Z,68.30
2022-09-12T19:16:09.968Z,68.40
2022-09-12T19:18:38.422Z,68.50
2022-09-12T19:21:09.255Z,68.50
2022-09-12T19:23:36.469Z,68.70
2022-09-12T19:26:05.746Z,68.60
2022-09-12T19:28:33.407Z,68.70
2022-09-12T19:31:00.570Z,68.70
2022-09-12T19:33:27.255Z,68.90
2022-09-12T19:35:53.888Z,68.80
2022-09-12T19:38:20.569Z,68.80
2022-09-12T19:40:59.574Z,68.80
2022-09-12T19:43:26.772Z,69.00
2022-09-12T19:45:53.643Z,69.00
2022-09-12T19:48:20.954Z,69.00
2022-09-12T19:50:48.331Z,69.10
2022-09-12T19:53:15.441Z,69.10
2022-09-12T19:55:42.674Z,69.20
2022-09-12T19:58:09.406Z,69.20
2022-09-12T20:00:37.218Z,69.30
2022-09-12T20:03:04.566Z,69.30
2022-09-12T20:05:34.376Z,69.50
2022-09-12T20:08:01.392Z,69.50
2022-09-12T20:10:28.303Z,69.50
2022-09-12T20:12:54.947Z,69.40
2022-09-12T20:15:21.671Z,69.50
2022-09-12T20:17:48.344Z,69.50
2022-09-12T20:20:15.006Z,69.50
2022-09-12T20:22:41.649Z,69.60
2022-09-12T20:25:08.650Z,69.60
2022-09-12T20:27:35.322Z,69.70
2022-09-12T20:30:02.125Z,69.70
2022-09-12T20:32:29.102Z,69.90
2022-09-12T20:34:56.356Z,69.90
2022-09-12T20:37:24.006Z,69.90
2022-09-12T20:39:51.176Z,69.80
2022-09-12T20:42:18.086Z,69.90
2022-09-12T20:44:44.806Z,69.80
2022-09-12T20:47:11.465Z,69.70
2022-09-12T20:49:38.142Z,69.70
2022-09-12T20:52:04.900Z,69.70
2022-09-12T20:54:31.603Z,69.70
2022-09-12T20:56:58.358Z,69.80
2022-09-12T20:59:25.045Z,69.70
2022-09-12T21:01:51.813Z,69.60
2022-09-12T21:04:19.021Z,69.60
2022-09-12T21:06:45.981Z,69.50
2022-09-12T21:09:13.057Z,69.50
2022-09-12T21:11:39.785Z,69.60
2022-09-12T21:14:06.422Z,69.50
2022-09-12T21:16:38.303Z,69.30
2022-09-12T21:19:08.737Z,69.40
2022-09-12T21:21:35.481Z,69.20
2022-09-12T21:24:02.900Z,69.10
2022-09-12T21:26:29.648Z,69.20
2022-09-12T21:28:56.369Z,69.10
2022-09-12T21:31:23.580Z,69.00
2022-09-12T21:33:51.284Z,68.90
2022-09-12T21:36:18.124Z,68.80
2022-09-12T21:38:44.836Z,68.90
2022-09-12T21:41:14.042Z,68.70
2022-09-12T21:43:41.429Z,68.70
2022-09-12T21:46:08.822Z,68.60
2022-09-12T21:48:35.642Z,68.50
2022-09-12T21:51:03.242Z,68.50
2022-09-12T21:53:30.175Z,68.30
2022-09-12T21:56:01.549Z,68.30
2022-09-12T21:58:28.287Z,68.20
2022-09-12T22:00:55.098Z,68.20
2022-09-12T22:03:21.991Z,68.10
2022-09-12T22:06:03.540Z,68.00
2022-09-12T22:08:32.097Z,68.00
2022-09-12T22:11:04.434Z,68.00
2022-09-12T22:13:31.973Z,68.00
2022-09-12T22:15:58.911Z,68.20
2022-09-12T22:18:25.603Z,68.30
2022-09-12T22:20:59.756Z,68.40
2022-09-12T22:23:45.314Z,68.70
2022-09-12T22:26:12.031Z,68.70
2022-09-12T22:28:38.707Z,68.80
2022-09-12T22:31:06.577Z,69.20
2022-09-12T22:33:33.322Z,69.40
2022-09-12T22:36:00.460Z,69.50
2022-09-12T22:38:27.331Z,69.60
2022-09-12T22:40:54.034Z,69.90
2022-09-12T22:43:20.652Z,70.10
2022-09-12T22:45:47.253Z,70.40
2022-09-12T22:48:13.936Z,70.60
2022-09-12T22:50:40.792Z,70.90
2022-09-12T22:53:07.457Z,71.00
2022-09-12T22:55:34.314Z,71.20
2022-09-12T22:58:00.988Z,71.40
2022-09-12T23:00:28.031Z,71.40
2022-09-12T23:02:54.932Z,71.20
2022-09-12T23:05:22.140Z,71.10
2022-09-12T23:07:48.850Z,71.20
2022-09-12T23:10:16.643Z,71.20
2022-09-12T23:12:43.319Z,71.10
2022-09-12T23:15:10.414Z,71.10
2022-09-12T23:17:37.345Z,71.10
2022-09-12T23:20:05.081Z,71.10
2022-09-12T23:22:31.733Z,71.10
2022-09-12T23:24:58.384Z,71.00
2022-09-12T23:27:27.569Z,71.00
2022-09-12T23:29:54.446Z,71.10
2022-09-12T23:32:21.153Z,71.10
2022-09-12T23:34:48.288Z,71.10
2022-09-12T23:37:15.651Z,71.10
2022-09-12T23:39:42.490Z,71.00
2022-09-12T23:42:09.247Z,70.70
2022-09-12T23:44:35.957Z,70.50
2022-09-12T23:47:03.197Z,70.20
2022-09-12T23:49:30.184Z,69.70
2022-09-12T23:51:56.929Z,69.50
2022-09-12T23:54:25.006Z,69.20
2022-09-12T23:56:52.052Z,69.00
2022-09-12T23:59:18.844Z,69.00
